createdAt,value
2022-09-12T00:06:43.184Z,13.9
2022-09-12T00:21:11.894Z,14
2022-09-12T00:35:40.581Z,13.7
2022-09-12T00:50:09.822Z,13.9
2022-09-12T01:04:38.770Z,13.8
2022-09-12T01:19:07.823Z,13.5
2022-09-12T01:33:37.199Z,13.6
2022-09-12T01:48:06.424Z,13.4
2022-09-12T02:02:35.023Z,13.4
2022-09-12T02:17:02.286Z,13.4
2022-09-12T02:31:32.062Z,13
2022-09-12T02:46:01.708Z,13.1
2022-09-12T03:00:32.016Z,13
2022-09-12T03:15:01.869Z,13.1
2022-09-12T03:29:31.577Z,13
2022-09-12T03:44:00.760Z,13.4
2022-09-12T03:58:29.837Z,12.9
2022-09-12T04:12:59.444Z,13
2022-09-12T04:27:29.490Z,12.9
2022-09-12T04:41:58.460Z,13.1
2022-09-12T04:56:27.780Z,13
2022-09-12T05:10:58.776Z,12.9
2022-09-12T05:25:27.950Z,12.9
2022-09-12T05:39:56.921Z,12.9
2022-09-12T05:54:32.104Z,13
2022-09-12T06:08:58.176Z,13.6
2022-09-12T06:23:25.843Z,13.9
2022-09-12T06:37:56.539Z,14.6
2022-09-12T06:52:27.623Z,15.1
2022-09-12T07:06:57.605Z,15.8
2022-09-12T07:21:29.303Z,16
2022-09-12T07:36:00.272Z,15.8
2022-09-12T07:50:30.905Z,16.1
2022-09-12T08:05:01.815Z,15.9
2022-09-12T08:19:34.055Z,16.1
2022-09-12T08:34:05.213Z,16.2
2022-09-12T08:48:33.158Z,16.2
2022-09-12T09:03:06.142Z,16.5
2022-09-12T09:17:38.499Z,16
2022-09-12T09:32:08.966Z,16.8
2022-09-12T09:46:33.945Z,15.2
2022-09-12T10:01:04.656Z,15.9
2022-09-12T10:15:34.379Z,15.2
2022-09-12T10:30:06.244Z,14.9
2022-09-12T10:44:37.027Z,14
2022-09-12T10:59:06.198Z,13.7
2022-09-12T11:13:37.332Z,13.6
2022-09-12T11:28:05.651Z,13.5
2022-09-12T11:42:35.686Z,14.3
2022-09-12T11:57:04.001Z,13.9
2022-09-12T12:11:32.275Z,13.1
2022-09-12T12:26:00.463Z,13.1
2022-09-12T12:40:29.776Z,12.7
2022-09-12T12:55:00.833Z,12.9
2022-09-12T13:09:30.382Z,13.2
2022-09-12T13:24:04.089Z,12.1
2022-09-12T13:38:35.828Z,12.5
2022-09-12T13:53:03.984Z,12.1
2022-09-12T14:07:34.156Z,12.5
2022-09-12T14:22:03.326Z,12.7
2022-09-12T14:36:33.203Z,12.2
2022-09-12T14:51:01.869Z,12.6
2022-09-12T15:05:30.486Z,12.4
2022-09-12T15:20:03.426Z,12.7
2022-09-12T15:34:31.696Z,12.4
2022-09-12T15:49:01.956Z,12.7
2022-09-12T16:03:30.597Z,13.1
2022-09-12T16:17:59.553Z,13
2022-09-12T16:32:26.755Z,12.8
2022-09-12T16:46:55.099Z,12.5
2022-09-12T17:01:24.975Z,12.8
2022-09-12T17:15:53.974Z,13.7
2022-09-12T17:30:22.692Z,13.6
2022-09-12T17:44:51.931Z,12.8
2022-09-12T17:59:21.216Z,12.8
2022-09-12T18:13:51.744Z,12.8
2022-09-12T18:28:19.074Z,12.9
2022-09-12T18:42:49.400Z,12.7
2022-09-12T18:57:16.372Z,12.5
2022-09-12T19:11:44.872Z,12.8
2022-09-12T19:26:15.803Z,13
2022-09-12T19:40:45.338Z,12.6
2022-09-12T19:55:14.191Z,12.9
2022-09-12T20:09:43.082Z,12.6
2022-09-12T20:24:11.564Z,13.1
2022-09-12T20:38:40.962Z,13.1
2022-09-12T20:53:09.933Z,13.2
2022-09-12T21:07:39.890Z,13.2
2022-09-12T21:22:05.226Z,13.5
2022-09-12T21:36:34.827Z,13.3
2022-09-12T21:51:04.486Z,13.4
2022-09-12T22:05:33.077Z,13.7
2022-09-12T22:20:01.442Z,13.6
2022-09-12T22:34:31.062Z,13.8
2022-09-12T22:49:00.216Z,13.8
2022-09-12T23:03:29.633Z,13.6
2022-09-12T23:17:58.885Z,13.6
2022-09-12T23:32:26.583Z,13.6
2022-09-12T23:46:56.127Z,13.5
